sensor_id;sensor_type;location;lat;lon;timestamp;temperature;humidity
20977;DHT22;10647;51.016;3.720;2023-04-01T00:01:12;11.60;99.90
20977;DHT22;10647;51.016;3.720;2023-04-01T00:03:43;11.60;99.90
20977;DHT22;10647;51.016;3.720;2023-04-01T00:06:16;11.60;99.90
20977;DHT22;10647;51.016;3.720;2023-04-01T00:08:43;11.60;99.90
20977;DHT22;10647;51.016;3.720;2023-04-01T00:11:11;11.60;99.90
20977;DHT22;10647;51.016;3.720;2023-04-01T00:13:39;11.60;99.90
20977;DHT22;10647;51.016;3.720;2023-04-01T00:16:07;11.60;99.90
20977;DHT22;10647;51.016;3.720;2023-04-01T00:18:35;11.60;99.90
20977;DHT22;10647;51.016;3.720;2023-04-01T00:21:02;11.60;99.90
20977;DHT22;10647;51.016;3.720;2023-04-01T00:23:30;11.50;99.90
20977;DHT22;10647;51.016;3.720;2023-04-01T00:26:00;11.60;99.90
20977;DHT22;10647;51.016;3.720;2023-04-01T00:28:29;11.60;99.90
20977;DHT22;10647;51.016;3.720;2023-04-01T00:30:57;11.60;99.90
20977;DHT22;10647;51.016;3.720;2023-04-01T00:33:25;11.60;99.90
20977;DHT22;10647;51.016;3.720;2023-04-01T00:35:53;11.60;99.90
20977;DHT22;10647;51.016;3.720;2023-04-01T00:38:21;11.60;99.90
20977;DHT22;10647;51.016;3.720;2023-04-01T00:40:49;11.70;99.90
20977;DHT22;10647;51.016;3.720;2023-04-01T00:43:19;11.60;99.90
20977;DHT22;10647;51.016;3.720;2023-04-01T00:45:48;11.60;99.90
20977;DHT22;10647;51.016;3.720;2023-04-01T00:48:22;11.60;99.90
20977;DHT22;10647;51.016;3.720;2023-04-01T00:51:03;11.60;99.90
20977;DHT22;10647;51.016;3.720;2023-04-01T00:53:34;11.60;99.90
20977;DHT22;10647;51.016;3.720;2023-04-01T00:56:09;11.50;99.90
20977;DHT22;10647;51.016;3.720;2023-04-01T00:58:35;11.50;99.90
20977;DHT22;10647;51.016;3.720;2023-04-01T01:01:03;11.40;99.90
20977;DHT22;10647;51.016;3.720;2023-04-01T01:03:30;11.30;99.90
20977;DHT22;10647;51.016;3.720;2023-04-01T01:12:07;11.30;99.90
20977;DHT22;10647;51.016;3.720;2023-04-01T01:26:10;11.10;99.90
20977;DHT22;10647;51.016;3.720;2023-04-01T01:29:01;11.10;99.90
20977;DHT22;10647;51.016;3.720;2023-04-01T01:32:03;11.10;99.90
20977;DHT22;10647;51.016;3.720;2023-04-01T01:40:00;11.00;99.90
20977;DHT22;10647;51.016;3.720;2023-04-01T01:42:29;11.00;99.90
20977;DHT22;10647;51.016;3.720;2023-04-01T01:45:00;11.00;99.90
20977;DHT22;10647;51.016;3.720;2023-04-01T01:50:18;11.00;99.90
20977;DHT22;10647;51.016;3.720;2023-04-01T01:53:01;11.10;99.90
20977;DHT22;10647;51.016;3.720;2023-04-01T01:55:34;11.20;99.90
20977;DHT22;10647;51.016;3.720;2023-04-01T02:01:17;11.10;99.90
20977;DHT22;10647;51.016;3.720;2023-04-01T02:03:45;11.10;99.90
20977;DHT22;10647;51.016;3.720;2023-04-01T02:09:06;11.10;99.90
20977;DHT22;10647;51.016;3.720;2023-04-01T02:11:46;11.20;99.90
20977;DHT22;10647;51.016;3.720;2023-04-01T02:14:25;11.20;99.90
20977;DHT22;10647;51.016;3.720;2023-04-01T02:17:10;11.20;99.90
20977;DHT22;10647;51.016;3.720;2023-04-01T02:22:37;11.20;99.90
20977;DHT22;10647;51.016;3.720;2023-04-01T02:25:13;11.20;99.90
20977;DHT22;10647;51.016;3.720;2023-04-01T02:27:43;11.20;99.90
20977;DHT22;10647;51.016;3.720;2023-04-01T02:30:15;11.20;99.90
20977;DHT22;10647;51.016;3.720;2023-04-01T02:32:45;11.20;99.90
20977;DHT22;10647;51.016;3.720;2023-04-01T02:38:06;11.10;99.90
20977;DHT22;10647;51.016;3.720;2023-04-01T02:40:42;11.10;99.90
20977;DHT22;10647;51.016;3.720;2023-04-01T02:43:17;11.10;99.90
20977;DHT22;10647;51.016;3.720;2023-04-01T02:45:49;11.10;99.90
20977;DHT22;10647;51.016;3.720;2023-04-01T02:48:18;11.10;99.90
20977;DHT22;10647;51.016;3.720;2023-04-01T02:51:11;11.10;99.90
20977;DHT22;10647;51.016;3.720;2023-04-01T02:53:59;11.20;99.90
20977;DHT22;10647;51.016;3.720;2023-04-01T02:56:30;11.20;99.90
20977;DHT22;10647;51.016;3.720;2023-04-01T02:59:08;11.20;99.90
20977;DHT22;10647;51.016;3.720;2023-04-01T03:01:39;11.20;99.90
20977;DHT22;10647;51.016;3.720;2023-04-01T03:04:16;11.20;99.90
20977;DHT22;10647;51.016;3.720;2023-04-01T03:06:44;11.30;99.90
20977;DHT22;10647;51.016;3.720;2023-04-01T03:09:19;11.20;99.90
20977;DHT22;10647;51.016;3.720;2023-04-01T03:11:54;11.30;99.90
20977;DHT22;10647;51.016;3.720;2023-04-01T03:14:36;11.30;99.90
20977;DHT22;10647;51.016;3.720;2023-04-01T03:17:14;11.20;99.90
20977;DHT22;10647;51.016;3.720;2023-04-01T03:19:50;11.20;99.90
20977;DHT22;10647;51.016;3.720;2023-04-01T03:22:17;11.20;99.90
20977;DHT22;10647;51.016;3.720;2023-04-01T03:24:51;11.20;99.90
20977;DHT22;10647;51.016;3.720;2023-04-01T03:27:21;11.20;99.90
20977;DHT22;10647;51.016;3.720;2023-04-01T03:29:51;11.30;99.90
20977;DHT22;10647;51.016;3.720;2023-04-01T03:32:20;11.30;99.90
20977;DHT22;10647;51.016;3.720;2023-04-01T03:34:48;11.30;99.90
20977;DHT22;10647;51.016;3.720;2023-04-01T03:37:15;11.30;99.90
20977;DHT22;10647;51.016;3.720;2023-04-01T03:39:44;11.30;99.90
20977;DHT22;10647;51.016;3.720;2023-04-01T03:42:14;11.40;99.90
20977;DHT22;10647;51.016;3.720;2023-04-01T03:44:41;11.40;99.90
20977;DHT22;10647;51.016;3.720;2023-04-01T03:47:09;11.40;99.90
20977;DHT22;10647;51.016;3.720;2023-04-01T03:49:36;11.30;99.90
20977;DHT22;10647;51.016;3.720;2023-04-01T03:52:08;11.20;99.90
20977;DHT22;10647;51.016;3.720;2023-04-01T03:54:36;11.20;99.90
20977;DHT22;10647;51.016;3.720;2023-04-01T03:57:03;11.20;99.90
20977;DHT22;10647;51.016;3.720;2023-04-01T03:59:31;11.20;99.90
20977;DHT22;10647;51.016;3.720;2023-04-01T04:01:59;11.20;99.90
20977;DHT22;10647;51.016;3.720;2023-04-01T04:04:27;11.20;99.90
20977;DHT22;10647;51.016;3.720;2023-04-01T04:06:54;11.20;99.90
20977;DHT22;10647;51.016;3.720;2023-04-01T04:09:23;11.20;99.90
20977;DHT22;10647;51.016;3.720;2023-04-01T04:11:50;11.10;99.90
20977;DHT22;10647;51.016;3.720;2023-04-01T04:14:18;11.20;99.90
20977;DHT22;10647;51.016;3.720;2023-04-01T04:16:46;11.20;99.90
20977;DHT22;10647;51.016;3.720;2023-04-01T04:19:14;11.20;99.90
20977;DHT22;10647;51.016;3.720;2023-04-01T04:21:42;11.20;99.90
20977;DHT22;10647;51.016;3.720;2023-04-01T04:24:09;11.20;99.90
20977;DHT22;10647;51.016;3.720;2023-04-01T04:26:42;11.20;99.90
20977;DHT22;10647;51.016;3.720;2023-04-01T04:29:09;11.30;99.90
20977;DHT22;10647;51.016;3.720;2023-04-01T04:31:42;11.30;99.90
20977;DHT22;10647;51.016;3.720;2023-04-01T04:34:10;11.20;99.90
20977;DHT22;10647;51.016;3.720;2023-04-01T04:36:37;11.30;99.90
20977;DHT22;10647;51.016;3.720;2023-04-01T04:39:07;11.30;99.90
20977;DHT22;10647;51.016;3.720;2023-04-01T04:41:38;11.20;99.90
20977;DHT22;10647;51.016;3.720;2023-04-01T04:44:07;11.10;99.90
20977;DHT22;10647;51.016;3.720;2023-04-01T04:46:35;11.20;99.90
20977;DHT22;10647;51.016;3.720;2023-04-01T04:51:53;11.20;99.90
20977;DHT22;10647;51.016;3.720;2023-04-01T04:54:21;11.30;99.90
20977;DHT22;10647;51.016;3.720;2023-04-01T04:56:51;11.30;99.90
20977;DHT22;10647;51.016;3.720;2023-04-01T04:59:19;11.20;99.90
20977;DHT22;10647;51.016;3.720;2023-04-01T05:01:46;11.00;99.90
20977;DHT22;10647;51.016;3.720;2023-04-01T05:04:14;11.00;99.90
20977;DHT22;10647;51.016;3.720;2023-04-01T05:06:44;10.90;99.90
20977;DHT22;10647;51.016;3.720;2023-04-01T05:09:12;11.00;99.90
20977;DHT22;10647;51.016;3.720;2023-04-01T05:11:40;11.00;99.90
20977;DHT22;10647;51.016;3.720;2023-04-01T05:14:13;11.00;99.90
20977;DHT22;10647;51.016;3.720;2023-04-01T05:16:40;11.00;99.90
20977;DHT22;10647;51.016;3.720;2023-04-01T05:19:08;11.10;99.90
20977;DHT22;10647;51.016;3.720;2023-04-01T05:21:35;11.00;99.90
20977;DHT22;10647;51.016;3.720;2023-04-01T05:24:03;11.00;99.90
20977;DHT22;10647;51.016;3.720;2023-04-01T05:26:30;11.00;99.90
20977;DHT22;10647;51.016;3.720;2023-04-01T05:28:59;11.00;99.90
20977;DHT22;10647;51.016;3.720;2023-04-01T05:31:26;11.00;99.90
20977;DHT22;10647;51.016;3.720;2023-04-01T05:33:54;11.10;99.90
20977;DHT22;10647;51.016;3.720;2023-04-01T05:36:22;11.10;99.90
20977;DHT22;10647;51.016;3.720;2023-04-01T05:38:50;11.10;99.90
20977;DHT22;10647;51.016;3.720;2023-04-01T05:41:17;11.00;99.90
20977;DHT22;10647;51.016;3.720;2023-04-01T05:43:45;11.00;99.90
20977;DHT22;10647;51.016;3.720;2023-04-01T05:46:12;11.00;99.90
20977;DHT22;10647;51.016;3.720;2023-04-01T05:48:41;11.00;99.90
20977;DHT22;10647;51.016;3.720;2023-04-01T05:51:13;11.10;99.90
20977;DHT22;10647;51.016;3.720;2023-04-01T05:53:41;11.20;99.90
20977;DHT22;10647;51.016;3.720;2023-04-01T05:56:14;11.10;99.90
20977;DHT22;10647;51.016;3.720;2023-04-01T05:58:42;11.10;99.90
20977;DHT22;10647;51.016;3.720;2023-04-01T06:01:11;11.20;99.90
20977;DHT22;10647;51.016;3.720;2023-04-01T06:03:42;11.20;99.90
20977;DHT22;10647;51.016;3.720;2023-04-01T06:09:47;11.20;99.90
20977;DHT22;10647;51.016;3.720;2023-04-01T06:11:46;11.10;99.90
20977;DHT22;10647;51.016;3.720;2023-04-01T06:14:36;11.00;99.90
20977;DHT22;10647;51.016;3.720;2023-04-01T06:25:51;10.90;99.90
20977;DHT22;10647;51.016;3.720;2023-04-01T06:28:34;11.00;99.90
20977;DHT22;10647;51.016;3.720;2023-04-01T06:31:29;11.00;99.90
20977;DHT22;10647;51.016;3.720;2023-04-01T06:34:02;11.10;99.90
20977;DHT22;10647;51.016;3.720;2023-04-01T06:56:34;11.10;99.90
20977;DHT22;10647;51.016;3.720;2023-04-01T06:59:27;11.20;99.90
20977;DHT22;10647;51.016;3.720;2023-04-01T07:01:58;11.30;99.90
20977;DHT22;10647;51.016;3.720;2023-04-01T07:04:43;11.30;99.90
20977;DHT22;10647;51.016;3.720;2023-04-01T07:07:46;11.40;99.90
20977;DHT22;10647;51.016;3.720;2023-04-01T07:10:53;11.40;99.90
20977;DHT22;10647;51.016;3.720;2023-04-01T07:13:25;11.40;99.90
20977;DHT22;10647;51.016;3.720;2023-04-01T07:16:22;11.30;99.90
20977;DHT22;10647;51.016;3.720;2023-04-01T07:24:48;11.50;99.90
20977;DHT22;10647;51.016;3.720;2023-04-01T07:27:35;11.50;99.90
20977;DHT22;10647;51.016;3.720;2023-04-01T07:30:06;11.50;99.90
20977;DHT22;10647;51.016;3.720;2023-04-01T07:35:36;11.40;99.90
20977;DHT22;10647;51.016;3.720;2023-04-01T07:47:01;11.50;99.90
20977;DHT22;10647;51.016;3.720;2023-04-01T07:52:08;11.40;99.90
20977;DHT22;10647;51.016;3.720;2023-04-01T08:05:54;11.40;99.90
20977;DHT22;10647;51.016;3.720;2023-04-01T08:22:20;11.90;99.90
20977;DHT22;10647;51.016;3.720;2023-04-01T08:24:47;12.10;99.90
20977;DHT22;10647;51.016;3.720;2023-04-01T08:27:26;12.20;99.90
20977;DHT22;10647;51.016;3.720;2023-04-01T08:30:17;12.30;99.90
20977;DHT22;10647;51.016;3.720;2023-04-01T08:32:42;12.30;99.90
20977;DHT22;10647;51.016;3.720;2023-04-01T08:35:31;12.30;99.90
20977;DHT22;10647;51.016;3.720;2023-04-01T08:38:31;12.30;99.90
20977;DHT22;10647;51.016;3.720;2023-04-01T08:41:26;12.40;99.90
20977;DHT22;10647;51.016;3.720;2023-04-01T08:47:23;12.10;99.90
20977;DHT22;10647;51.016;3.720;2023-04-01T08:58:32;11.80;99.90
20977;DHT22;10647;51.016;3.720;2023-04-01T09:04:32;12.30;99.90
20977;DHT22;10647;51.016;3.720;2023-04-01T09:07:18;12.40;99.90
20977;DHT22;10647;51.016;3.720;2023-04-01T09:15:54;13.00;99.90
20977;DHT22;10647;51.016;3.720;2023-04-01T09:21:46;13.00;99.90
20977;DHT22;10647;51.016;3.720;2023-04-01T09:27:52;12.70;99.90
20977;DHT22;10647;51.016;3.720;2023-04-01T09:33:53;12.50;99.90
20977;DHT22;10647;51.016;3.720;2023-04-01T09:36:43;12.50;99.90
20977;DHT22;10647;51.016;3.720;2023-04-01T09:39:26;12.60;99.90
20977;DHT22;10647;51.016;3.720;2023-04-01T09:42:15;12.80;99.90
20977;DHT22;10647;51.016;3.720;2023-04-01T09:47:42;12.80;99.90
20977;DHT22;10647;51.016;3.720;2023-04-01T09:53:59;12.40;99.90
20977;DHT22;10647;51.016;3.720;2023-04-01T10:08:23;12.00;99.90
20977;DHT22;10647;51.016;3.720;2023-04-01T10:14:15;12.10;99.90
20977;DHT22;10647;51.016;3.720;2023-04-01T10:25:34;12.30;99.90
20977;DHT22;10647;51.016;3.720;2023-04-01T10:31:22;12.40;99.90
20977;DHT22;10647;51.016;3.720;2023-04-01T10:42:38;13.30;99.90
20977;DHT22;10647;51.016;3.720;2023-04-01T10:48:19;13.80;99.90
20977;DHT22;10647;51.016;3.720;2023-04-01T10:51:00;14.20;99.90
20977;DHT22;10647;51.016;3.720;2023-04-01T10:53:46;14.50;99.90
20977;DHT22;10647;51.016;3.720;2023-04-01T10:59:20;15.00;99.90
20977;DHT22;10647;51.016;3.720;2023-04-01T11:08:04;13.90;99.90
20977;DHT22;10647;51.016;3.720;2023-04-01T11:10:51;13.70;99.90
20977;DHT22;10647;51.016;3.720;2023-04-01T11:19:18;13.20;99.90
20977;DHT22;10647;51.016;3.720;2023-04-01T11:28:01;13.30;99.90
20977;DHT22;10647;51.016;3.720;2023-04-01T11:31:20;13.40;99.90
20977;DHT22;10647;51.016;3.720;2023-04-01T11:33:34;13.50;99.90
20977;DHT22;10647;51.016;3.720;2023-04-01T11:36:19;13.60;99.90
20977;DHT22;10647;51.016;3.720;2023-04-01T11:44:21;13.40;99.90
20977;DHT22;10647;51.016;3.720;2023-04-01T12:10:05;13.50;99.90
20977;DHT22;10647;51.016;3.720;2023-04-01T12:12:40;13.60;99.90
20977;DHT22;10647;51.016;3.720;2023-04-01T12:26:59;13.20;99.90
20977;DHT22;10647;51.016;3.720;2023-04-01T12:32:34;13.60;99.90
20977;DHT22;10647;51.016;3.720;2023-04-01T12:38:17;14.40;99.90
20977;DHT22;10647;51.016;3.720;2023-04-01T12:41:01;14.30;99.90
20977;DHT22;10647;51.016;3.720;2023-04-01T12:50:09;13.50;99.90
20977;DHT22;10647;51.016;3.720;2023-04-01T12:52:50;13.20;99.90
20977;DHT22;10647;51.016;3.720;2023-04-01T12:57:57;12.80;99.90
20977;DHT22;10647;51.016;3.720;2023-04-01T13:09:19;12.60;99.90
20977;DHT22;10647;51.016;3.720;2023-04-01T13:23:24;12.60;99.90
20977;DHT22;10647;51.016;3.720;2023-04-01T13:45:19;12.90;99.90
20977;DHT22;10647;51.016;3.720;2023-04-01T13:53:59;13.70;99.90
20977;DHT22;10647;51.016;3.720;2023-04-01T13:56:42;13.50;99.90
20977;DHT22;10647;51.016;3.720;2023-04-01T14:11:10;12.70;99.90
20977;DHT22;10647;51.016;3.720;2023-04-01T14:13:56;12.60;99.90
20977;DHT22;10647;51.016;3.720;2023-04-01T14:19:46;12.80;99.90
20977;DHT22;10647;51.016;3.720;2023-04-01T14:38:24;12.60;99.90
20977;DHT22;10647;51.016;3.720;2023-04-01T14:48:07;12.30;99.90
20977;DHT22;10647;51.016;3.720;2023-04-01T14:50:47;12.30;99.90
20977;DHT22;10647;51.016;3.720;2023-04-01T14:53:41;12.30;99.90
20977;DHT22;10647;51.016;3.720;2023-04-01T14:56:10;12.30;99.90
20977;DHT22;10647;51.016;3.720;2023-04-01T14:58:46;12.40;99.90
20977;DHT22;10647;51.016;3.720;2023-04-01T15:04:13;12.30;99.90
20977;DHT22;10647;51.016;3.720;2023-04-01T15:10:24;12.40;99.90
20977;DHT22;10647;51.016;3.720;2023-04-01T15:24:07;12.10;99.90
20977;DHT22;10647;51.016;3.720;2023-04-01T15:43:49;12.00;99.90
20977;DHT22;10647;51.016;3.720;2023-04-01T15:46:43;11.80;99.90
20977;DHT22;10647;51.016;3.720;2023-04-01T15:49:37;11.70;99.90
20977;DHT22;10647;51.016;3.720;2023-04-01T15:52:18;11.80;99.90
20977;DHT22;10647;51.016;3.720;2023-04-01T15:54:54;11.90;99.90
20977;DHT22;10647;51.016;3.720;2023-04-01T16:00:45;11.80;99.90
20977;DHT22;10647;51.016;3.720;2023-04-01T16:06:33;11.60;99.90
20977;DHT22;10647;51.016;3.720;2023-04-01T16:09:25;11.60;99.90
20977;DHT22;10647;51.016;3.720;2023-04-01T16:12:18;11.60;99.90
20977;DHT22;10647;51.016;3.720;2023-04-01T16:18:27;11.70;99.90
20977;DHT22;10647;51.016;3.720;2023-04-01T16:21:35;11.80;99.90
20977;DHT22;10647;51.016;3.720;2023-04-01T16:24:13;11.80;99.90
20977;DHT22;10647;51.016;3.720;2023-04-01T16:26:57;11.60;99.90
20977;DHT22;10647;51.016;3.720;2023-04-01T16:41:17;11.50;99.90
20977;DHT22;10647;51.016;3.720;2023-04-01T16:46:44;11.20;99.90
20977;DHT22;10647;51.016;3.720;2023-04-01T16:49:22;11.20;99.90
20977;DHT22;10647;51.016;3.720;2023-04-01T17:00:30;11.00;99.90
20977;DHT22;10647;51.016;3.720;2023-04-01T17:08:53;10.70;99.90
20977;DHT22;10647;51.016;3.720;2023-04-01T17:14:32;10.80;99.90
20977;DHT22;10647;51.016;3.720;2023-04-01T17:17:06;10.80;99.90
20977;DHT22;10647;51.016;3.720;2023-04-01T17:22:43;10.80;99.90
20977;DHT22;10647;51.016;3.720;2023-04-01T17:30:41;10.90;99.90
20977;DHT22;10647;51.016;3.720;2023-04-01T17:33:42;10.80;99.90
20977;DHT22;10647;51.016;3.720;2023-04-01T17:45:21;10.60;99.90
20977;DHT22;10647;51.016;3.720;2023-04-01T17:53:36;10.50;99.90
20977;DHT22;10647;51.016;3.720;2023-04-01T18:05:05;10.40;99.90
20977;DHT22;10647;51.016;3.720;2023-04-01T18:17:32;10.20;99.90
20977;DHT22;10647;51.016;3.720;2023-04-01T18:19:46;10.10;99.90
20977;DHT22;10647;51.016;3.720;2023-04-01T18:25:22;10.00;99.90
20977;DHT22;10647;51.016;3.720;2023-04-01T18:31:07;10.10;99.90
20977;DHT22;10647;51.016;3.720;2023-04-01T18:33:57;10.10;99.90
20977;DHT22;10647;51.016;3.720;2023-04-01T18:36:56;10.00;99.90
20977;DHT22;10647;51.016;3.720;2023-04-01T18:39:33;10.00;99.90
20977;DHT22;10647;51.016;3.720;2023-04-01T18:44:57;10.00;99.90
20977;DHT22;10647;51.016;3.720;2023-04-01T18:50:37;10.00;99.90
20977;DHT22;10647;51.016;3.720;2023-04-01T18:56:08;10.00;99.90
20977;DHT22;10647;51.016;3.720;2023-04-01T19:01:56;9.90;99.90
20977;DHT22;10647;51.016;3.720;2023-04-01T19:07:26;10.00;99.90
20977;DHT22;10647;51.016;3.720;2023-04-01T19:09:49;10.10;99.90
20977;DHT22;10647;51.016;3.720;2023-04-01T19:12:51;10.10;99.90
20977;DHT22;10647;51.016;3.720;2023-04-01T19:24:09;10.00;99.90
20977;DHT22;10647;51.016;3.720;2023-04-01T19:29:28;10.00;99.90
20977;DHT22;10647;51.016;3.720;2023-04-01T19:32:01;10.00;99.90
20977;DHT22;10647;51.016;3.720;2023-04-01T19:34:36;10.00;99.90
20977;DHT22;10647;51.016;3.720;2023-04-01T19:51:09;10.20;99.90
20977;DHT22;10647;51.016;3.720;2023-04-01T19:53:50;10.10;99.90
20977;DHT22;10647;51.016;3.720;2023-04-01T19:56:23;10.10;99.90
20977;DHT22;10647;51.016;3.720;2023-04-01T20:04:58;10.00;99.90
20977;DHT22;10647;51.016;3.720;2023-04-01T20:07:57;10.10;99.90
20977;DHT22;10647;51.016;3.720;2023-04-01T20:13:37;10.10;99.90
20977;DHT22;10647;51.016;3.720;2023-04-01T20:16:06;10.10;99.90
20977;DHT22;10647;51.016;3.720;2023-04-01T20:18:50;10.20;99.90
20977;DHT22;10647;51.016;3.720;2023-04-01T20:21:36;10.20;99.90
20977;DHT22;10647;51.016;3.720;2023-04-01T20:24:28;10.20;99.90
20977;DHT22;10647;51.016;3.720;2023-04-01T20:27:00;10.20;99.90
20977;DHT22;10647;51.016;3.720;2023-04-01T20:40:20;10.30;99.90
20977;DHT22;10647;51.016;3.720;2023-04-01T20:46:16;10.20;99.90
20977;DHT22;10647;51.016;3.720;2023-04-01T20:48:58;10.10;99.90
20977;DHT22;10647;51.016;3.720;2023-04-01T21:06:09;10.00;99.90
20977;DHT22;10647;51.016;3.720;2023-04-01T21:17:30;9.90;99.90
20977;DHT22;10647;51.016;3.720;2023-04-01T21:42:26;10.10;99.90
20977;DHT22;10647;51.016;3.720;2023-04-01T21:45:41;10.10;99.90
20977;DHT22;10647;51.016;3.720;2023-04-01T21:51:24;10.20;99.90
20977;DHT22;10647;51.016;3.720;2023-04-01T21:53:58;10.20;99.90
20977;DHT22;10647;51.016;3.720;2023-04-01T22:08:52;10.20;99.90
20977;DHT22;10647;51.016;3.720;2023-04-01T22:11:28;10.10;99.90
20977;DHT22;10647;51.016;3.720;2023-04-01T22:14:42;10.10;99.90
20977;DHT22;10647;51.016;3.720;2023-04-01T22:26:53;10.10;99.90
20977;DHT22;10647;51.016;3.720;2023-04-01T22:29:04;10.00;99.90
20977;DHT22;10647;51.016;3.720;2023-04-01T22:32:12;10.10;99.90
20977;DHT22;10647;51.016;3.720;2023-04-01T22:34:46;10.10;99.90
20977;DHT22;10647;51.016;3.720;2023-04-01T22:37:18;10.10;99.90
20977;DHT22;10647;51.016;3.720;2023-04-01T22:42:56;10.20;99.90
20977;DHT22;10647;51.016;3.720;2023-04-01T22:48:26;10.20;99.90
20977;DHT22;10647;51.016;3.720;2023-04-01T22:54:14;10.20;99.90
20977;DHT22;10647;51.016;3.720;2023-04-01T22:57:16;10.20;99.90
20977;DHT22;10647;51.016;3.720;2023-04-01T22:59:57;10.20;99.90
20977;DHT22;10647;51.016;3.720;2023-04-01T23:02:29;10.20;99.90
20977;DHT22;10647;51.016;3.720;2023-04-01T23:04:57;10.10;99.90
20977;DHT22;10647;51.016;3.720;2023-04-01T23:07:45;10.20;99.90
20977;DHT22;10647;51.016;3.720;2023-04-01T23:11:04;10.20;99.90
20977;DHT22;10647;51.016;3.720;2023-04-01T23:12:46;10.20;99.90
20977;DHT22;10647;51.016;3.720;2023-04-01T23:15:16;10.20;99.90
20977;DHT22;10647;51.016;3.720;2023-04-01T23:17:58;10.20;99.90
20977;DHT22;10647;51.016;3.720;2023-04-01T23:20:51;10.20;99.90
20977;DHT22;10647;51.016;3.720;2023-04-01T23:23:22;10.20;99.90
20977;DHT22;10647;51.016;3.720;2023-04-01T23:26:12;10.30;99.90
20977;DHT22;10647;51.016;3.720;2023-04-01T23:28:53;10.20;99.90
20977;DHT22;10647;51.016;3.720;2023-04-01T23:31:26;10.10;99.90
20977;DHT22;10647;51.016;3.720;2023-04-01T23:33:55;10.10;99.90
20977;DHT22;10647;51.016;3.720;2023-04-01T23:36:25;10.00;99.90
20977;DHT22;10647;51.016;3.720;2023-04-01T23:38:54;10.00;99.90
20977;DHT22;10647;51.016;3.720;2023-04-01T23:41:27;10.10;99.90
20977;DHT22;10647;51.016;3.720;2023-04-01T23:44:04;10.10;99.90
20977;DHT22;10647;51.016;3.720;2023-04-01T23:49:40;10.20;99.90
20977;DHT22;10647;51.016;3.720;2023-04-01T23:52:31;10.20;99.90
